sensor_id;sensor_type;location;lat;lon;timestamp;pressure;altitude;pressure_sealevel;temperature;humidity
44734;BME280;30462;52.446;-1.930;2023-05-25T00:00:19;101432.1758;;;;
44734;BME280;30462;52.446;-1.930;2023-05-25T00:01:17;101435.4492;;;;
44734;BME280;30462;52.446;-1.930;2023-05-25T00:02:18;101434.2539;;;;
44734;BME280;30462;52.446;-1.930;2023-05-25T00:03:18;101437.7148;;;;
44734;BME280;30462;52.446;-1.930;2023-05-25T00:04:18;101431.3008;;;;
44734;BME280;30462;52.446;-1.930;2023-05-25T00:05:18;101431.0391;;;;
44734;BME280;30462;52.446;-1.930;2023-05-25T00:06:18;101430.1484;;;;
44734;BME280;30462;52.446;-1.930;2023-05-25T00:07:18;101429.3906;;;;
44734;BME280;30462;52.446;-1.930;2023-05-25T00:08:18;101430.2656;;;;
44734;BME280;30462;52.446;-1.930;2023-05-25T00:09:17;101429.8633;;;;
44734;BME280;30462;52.446;-1.930;2023-05-25T00:10:18;101430.5352;;;;
44734;BME280;30462;52.446;-1.930;2023-05-25T00:11:18;101428.707;;;;
44734;BME280;30462;52.446;-1.930;2023-05-25T00:12:18;101430.8242;;;;
44734;BME280;30462;52.446;-1.930;2023-05-25T00:13:18;101431.8633;;;;
44734;BME280;30462;52.446;-1.930;2023-05-25T00:14:18;101432.5352;;;;
44734;BME280;30462;52.446;-1.930;2023-05-25T00:15:18;101427.8359;;;;
44734;BME280;30462;52.446;-1.930;2023-05-25T00:16:18;101436.3359;;;;
44734;BME280;30462;52.446;-1.930;2023-05-25T00:17:18;101431.4961;;;;
44734;BME280;30462;52.446;-1.930;2023-05-25T00:18:17;101431.3555;;;;
44734;BME280;30462;52.446;-1.930;2023-05-25T00:19:18;101428.2656;;;;
44734;BME280;30462;52.446;-1.930;2023-05-25T00:20:18;101428.6445;;;;
44734;BME280;30462;52.446;-1.930;2023-05-25T00:21:18;101431.0898;;;;
44734;BME280;30462;52.446;-1.930;2023-05-25T00:22:18;101430.6133;;;;
44734;BME280;30462;52.446;-1.930;2023-05-25T00:23:18;101433.918;;;;
44734;BME280;30462;52.446;-1.930;2023-05-25T00:24:18;101435.7695;;;;
44734;BME280;30462;52.446;-1.930;2023-05-25T00:25:18;101436.6133;;;;
44734;BME280;30462;52.446;-1.930;2023-05-25T00:26:18;101437.4766;;;;
44734;BME280;30462;52.446;-1.930;2023-05-25T00:27:18;101434.9414;;;;
44734;BME280;30462;52.446;-1.930;2023-05-25T00:28:18;101436.6016;;;;
44734;BME280;30462;52.446;-1.930;2023-05-25T00:29:17;101433.8633;;;;
44734;BME280;30462;52.446;-1.930;2023-05-25T00:30:18;101436.6445;;;;
44734;BME280;30462;52.446;-1.930;2023-05-25T00:31:18;101434.5977;;;;
44734;BME280;30462;52.446;-1.930;2023-05-25T00:32:18;101436.1992;;;;
44734;BME280;30462;52.446;-1.930;2023-05-25T00:33:18;101439.4805;;;;
44734;BME280;30462;52.446;-1.930;2023-05-25T00:34:18;101438.0352;;;;
44734;BME280;30462;52.446;-1.930;2023-05-25T00:35:17;101438.6289;;;;
44734;BME280;30462;52.446;-1.930;2023-05-25T00:36:18;101439.2148;;;;
44734;BME280;30462;52.446;-1.930;2023-05-25T00:37:18;101440.5586;;;;
44734;BME280;30462;52.446;-1.930;2023-05-25T00:38:18;101442.3203;;;;
44734;BME280;30462;52.446;-1.930;2023-05-25T00:39:18;101443.75;;;;
44734;BME280;30462;52.446;-1.930;2023-05-25T00:40:18;101444.9258;;;;
44734;BME280;30462;52.446;-1.930;2023-05-25T00:41:18;101446.3086;;;;
44734;BME280;30462;52.446;-1.930;2023-05-25T00:42:18;101448.1719;;;;
44734;BME280;30462;52.446;-1.930;2023-05-25T00:43:18;101445.625;;;;
44734;BME280;30462;52.446;-1.930;2023-05-25T00:44:18;101449.2852;;;;
44734;BME280;30462;52.446;-1.930;2023-05-25T00:45:18;101447.2461;;;;
44734;BME280;30462;52.446;-1.930;2023-05-25T00:46:18;101447.3984;;;;
44734;BME280;30462;52.446;-1.930;2023-05-25T00:47:18;101449.2305;;;;
44734;BME280;30462;52.446;-1.930;2023-05-25T00:48:18;101448.8242;;;;
44734;BME280;30462;52.446;-1.930;2023-05-25T00:49:18;101448.5977;;;;
44734;BME280;30462;52.446;-1.930;2023-05-25T00:50:19;101449.3359;;;;
44734;BME280;30462;52.446;-1.930;2023-05-25T00:51:17;101449.4727;;;;
44734;BME280;30462;52.446;-1.930;2023-05-25T00:52:18;101453.5625;;;;
44734;BME280;30462;52.446;-1.930;2023-05-25T00:53:18;101456.7578;;;;
44734;BME280;30462;52.446;-1.930;2023-05-25T00:54:18;101456.1758;;;;
44734;BME280;30462;52.446;-1.930;2023-05-25T00:55:17;101455.5625;;;;
44734;BME280;30462;52.446;-1.930;2023-05-25T00:56:18;101456.832;;;;
44734;BME280;30462;52.446;-1.930;2023-05-25T00:57:18;101458.25;;;;
44734;BME280;30462;52.446;-1.930;2023-05-25T00:58:19;101460.5391;;;;
44734;BME280;30462;52.446;-1.930;2023-05-25T00:59:19;101461.4766;;;;
44734;BME280;30462;52.446;-1.930;2023-05-25T01:00:17;101459.6641;;;;
44734;BME280;30462;52.446;-1.930;2023-05-25T01:01:17;101460.8047;;;;
44734;BME280;30462;52.446;-1.930;2023-05-25T01:02:18;101458.4453;;;;
44734;BME280;30462;52.446;-1.930;2023-05-25T01:03:18;101460.9609;;;;
44734;BME280;30462;52.446;-1.930;2023-05-25T01:04:18;101456.2813;;;;
44734;BME280;30462;52.446;-1.930;2023-05-25T01:05:17;101462.2773;;;;
44734;BME280;30462;52.446;-1.930;2023-05-25T01:06:19;101466.6172;;;;
44734;BME280;30462;52.446;-1.930;2023-05-25T01:07:19;101466.9805;;;;
44734;BME280;30462;52.446;-1.930;2023-05-25T01:08:18;101465.457;;;;
44734;BME280;30462;52.446;-1.930;2023-05-25T01:09:18;101463.6094;;;;
44734;BME280;30462;52.446;-1.930;2023-05-25T01:10:18;101462.75;;;;
44734;BME280;30462;52.446;-1.930;2023-05-25T01:11:18;101460.9141;;;;
44734;BME280;30462;52.446;-1.930;2023-05-25T01:12:18;101461.2969;;;;
44734;BME280;30462;52.446;-1.930;2023-05-25T01:13:18;101461.8555;;;;
44734;BME280;30462;52.446;-1.930;2023-05-25T01:14:18;101457.4961;;;;
44734;BME280;30462;52.446;-1.930;2023-05-25T01:15:18;101456.7344;;;;
44734;BME280;30462;52.446;-1.930;2023-05-25T01:16:18;101453.9102;;;;
44734;BME280;30462;52.446;-1.930;2023-05-25T01:17:19;101456.9297;;;;
44734;BME280;30462;52.446;-1.930;2023-05-25T01:18:18;101458;;;;
44734;BME280;30462;52.446;-1.930;2023-05-25T01:19:18;101456.457;;;;
44734;BME280;30462;52.446;-1.930;2023-05-25T01:20:18;101459.9141;;;;
44734;BME280;30462;52.446;-1.930;2023-05-25T01:21:19;101455.0117;;;;
44734;BME280;30462;52.446;-1.930;2023-05-25T01:22:20;101456.4375;;;;
44734;BME280;30462;52.446;-1.930;2023-05-25T01:23:18;101459.6289;;;;
44734;BME280;30462;52.446;-1.930;2023-05-25T01:24:23;101460.0234;;;;
44734;BME280;30462;52.446;-1.930;2023-05-25T01:25:21;101459.3125;;;;
44734;BME280;30462;52.446;-1.930;2023-05-25T01:26:18;101462.9375;;;;
44734;BME280;30462;52.446;-1.930;2023-05-25T01:27:19;101462.2773;;;;
44734;BME280;30462;52.446;-1.930;2023-05-25T01:28:20;101464.1523;;;;
44734;BME280;30462;52.446;-1.930;2023-05-25T01:29:18;101464.4609;;;;
44734;BME280;30462;52.446;-1.930;2023-05-25T01:30:18;101460.8672;;;;
44734;BME280;30462;52.446;-1.930;2023-05-25T01:31:19;101458.4336;;;;
44734;BME280;30462;52.446;-1.930;2023-05-25T01:32:18;101462.543;;;;
44734;BME280;30462;52.446;-1.930;2023-05-25T01:33:18;101459.9258;;;;
44734;BME280;30462;52.446;-1.930;2023-05-25T01:34:18;101460.9531;;;;
44734;BME280;30462;52.446;-1.930;2023-05-25T01:35:18;101461.6836;;;;
44734;BME280;30462;52.446;-1.930;2023-05-25T01:36:18;101460.7109;;;;
44734;BME280;30462;52.446;-1.930;2023-05-25T01:37:18;101460.7773;;;;
44734;BME280;30462;52.446;-1.930;2023-05-25T01:38:18;101458.9961;;;;
44734;BME280;30462;52.446;-1.930;2023-05-25T01:39:19;101459.5781;;;;
44734;BME280;30462;52.446;-1.930;2023-05-25T01:40:18;101461.5547;;;;
44734;BME280;30462;52.446;-1.930;2023-05-25T01:41:17;101460.6797;;;;
44734;BME280;30462;52.446;-1.930;2023-05-25T01:42:18;101461.2656;;;;
44734;BME280;30462;52.446;-1.930;2023-05-25T01:43:18;101461.9258;;;;
44734;BME280;30462;52.446;-1.930;2023-05-25T01:44:18;101461.543;;;;
44734;BME280;30462;52.446;-1.930;2023-05-25T01:45:18;101466.8789;;;;
44734;BME280;30462;52.446;-1.930;2023-05-25T01:46:19;101468.6758;;;;
44734;BME280;30462;52.446;-1.930;2023-05-25T01:47:22;101465.6133;;;;
44734;BME280;30462;52.446;-1.930;2023-05-25T01:48:20;101467.8477;;;;
44734;BME280;30462;52.446;-1.930;2023-05-25T01:49:20;101470.1719;;;;
44734;BME280;30462;52.446;-1.930;2023-05-25T01:50:21;101468.918;;;;
44734;BME280;30462;52.446;-1.930;2023-05-25T01:51:20;101470.3867;;;;
44734;BME280;30462;52.446;-1.930;2023-05-25T01:52:20;101468.6563;;;;
44734;BME280;30462;52.446;-1.930;2023-05-25T01:53:18;101473.3516;;;;
44734;BME280;30462;52.446;-1.930;2023-05-25T01:54:18;101468.2813;;;;
44734;BME280;30462;52.446;-1.930;2023-05-25T01:55:18;101469.0195;;;;
44734;BME280;30462;52.446;-1.930;2023-05-25T01:56:18;101469.6016;;;;
44734;BME280;30462;52.446;-1.930;2023-05-25T01:57:18;101473.4492;;;;
44734;BME280;30462;52.446;-1.930;2023-05-25T01:58:18;101474.125;;;;
44734;BME280;30462;52.446;-1.930;2023-05-25T01:59:19;101475.4141;;;;
44734;BME280;30462;52.446;-1.930;2023-05-25T02:00:18;101478.9336;;;;
44734;BME280;30462;52.446;-1.930;2023-05-25T02:01:18;101479.1133;;;;
44734;BME280;30462;52.446;-1.930;2023-05-25T02:02:18;101475.1953;;;;
44734;BME280;30462;52.446;-1.930;2023-05-25T02:03:18;101476.0352;;;;
44734;BME280;30462;52.446;-1.930;2023-05-25T02:04:18;101475.9648;;;;
44734;BME280;30462;52.446;-1.930;2023-05-25T02:05:18;101473.7266;;;;
44734;BME280;30462;52.446;-1.930;2023-05-25T02:06:18;101476.3281;;;;
44734;BME280;30462;52.446;-1.930;2023-05-25T02:07:18;101474.6484;;;;
44734;BME280;30462;52.446;-1.930;2023-05-25T02:08:18;101477.7773;;;;
44734;BME280;30462;52.446;-1.930;2023-05-25T02:09:18;101479.5859;;;;
44734;BME280;30462;52.446;-1.930;2023-05-25T02:10:18;101477.6289;;;;
44734;BME280;30462;52.446;-1.930;2023-05-25T02:11:17;101475.3867;;;;
44734;BME280;30462;52.446;-1.930;2023-05-25T02:12:18;101475.0469;;;;
44734;BME280;30462;52.446;-1.930;2023-05-25T02:13:18;101477.7969;;;;
44734;BME280;30462;52.446;-1.930;2023-05-25T02:14:18;101473.1797;;;;
44734;BME280;30462;52.446;-1.930;2023-05-25T02:15:18;101474.4375;;;;
44734;BME280;30462;52.446;-1.930;2023-05-25T02:16:17;101475.707;;;;
44734;BME280;30462;52.446;-1.930;2023-05-25T02:17:18;101475.0039;;;;
44734;BME280;30462;52.446;-1.930;2023-05-25T02:18:18;101475.418;;;;
44734;BME280;30462;52.446;-1.930;2023-05-25T02:19:18;101473.2422;;;;
44734;BME280;30462;52.446;-1.930;2023-05-25T02:20:18;101477.9023;;;;
44734;BME280;30462;52.446;-1.930;2023-05-25T02:21:18;101476.4375;;;;
44734;BME280;30462;52.446;-1.930;2023-05-25T02:22:18;101480.4219;;;;
44734;BME280;30462;52.446;-1.930;2023-05-25T02:23:18;101479.0078;;;;
44734;BME280;30462;52.446;-1.930;2023-05-25T02:24:18;101477.0781;;;;
44734;BME280;30462;52.446;-1.930;2023-05-25T02:25:17;101477.25;;;;
44734;BME280;30462;52.446;-1.930;2023-05-25T02:26:18;101474.4648;;;;
44734;BME280;30462;52.446;-1.930;2023-05-25T02:27:18;101476.832;;;;
44734;BME280;30462;52.446;-1.930;2023-05-25T02:28:18;101476.1602;;;;
44734;BME280;30462;52.446;-1.930;2023-05-25T02:29:18;101477.25;;;;
44734;BME280;30462;52.446;-1.930;2023-05-25T02:30:18;101479.5547;;;;
44734;BME280;30462;52.446;-1.930;2023-05-25T02:31:18;101483.2383;;;;
44734;BME280;30462;52.446;-1.930;2023-05-25T02:32:18;101483.2891;;;;
44734;BME280;30462;52.446;-1.930;2023-05-25T02:33:17;101483.3906;;;;
44734;BME280;30462;52.446;-1.930;2023-05-25T02:34:18;101481.8438;;;;
44734;BME280;30462;52.446;-1.930;2023-05-25T02:35:18;101484.1992;;;;
44734;BME280;30462;52.446;-1.930;2023-05-25T02:36:18;101483.1289;;;;
44734;BME280;30462;52.446;-1.930;2023-05-25T02:37:17;101478.582;;;;
44734;BME280;30462;52.446;-1.930;2023-05-25T02:38:18;101481.0547;;;;
44734;BME280;30462;52.446;-1.930;2023-05-25T02:39:18;101481.875;;;;
44734;BME280;30462;52.446;-1.930;2023-05-25T02:40:18;101480.3789;;;;
44734;BME280;30462;52.446;-1.930;2023-05-25T02:41:18;101480.4453;;;;
44734;BME280;30462;52.446;-1.930;2023-05-25T02:42:18;101475.7891;;;;
44734;BME280;30462;52.446;-1.930;2023-05-25T02:43:17;101476.4492;;;;
44734;BME280;30462;52.446;-1.930;2023-05-25T02:44:18;101476.6641;;;;
44734;BME280;30462;52.446;-1.930;2023-05-25T02:45:18;101474.6367;;;;
44734;BME280;30462;52.446;-1.930;2023-05-25T02:46:18;101477.1914;;;;
44734;BME280;30462;52.446;-1.930;2023-05-25T02:47:18;101478.6914;;;;
44734;BME280;30462;52.446;-1.930;2023-05-25T02:48:18;101478.875;;;;
44734;BME280;30462;52.446;-1.930;2023-05-25T02:49:18;101477.1133;;;;
44734;BME280;30462;52.446;-1.930;2023-05-25T02:50:17;101477.3281;;;;
44734;BME280;30462;52.446;-1.930;2023-05-25T02:51:18;101477.7383;;;;
44734;BME280;30462;52.446;-1.930;2023-05-25T02:52:18;101475.5977;;;;
44734;BME280;30462;52.446;-1.930;2023-05-25T02:53:18;101476.8008;;;;
44734;BME280;30462;52.446;-1.930;2023-05-25T02:54:18;101480.1914;;;;
44734;BME280;30462;52.446;-1.930;2023-05-25T02:55:18;101480.1211;;;;
44734;BME280;30462;52.446;-1.930;2023-05-25T02:56:18;101481.75;;;;
44734;BME280;30462;52.446;-1.930;2023-05-25T02:57:18;101486.1602;;;;
44734;BME280;30462;52.446;-1.930;2023-05-25T02:58:17;101484.9609;;;;
44734;BME280;30462;52.446;-1.930;2023-05-25T02:59:18;101485.4688;;;;
44734;BME280;30462;52.446;-1.930;2023-05-25T03:00:18;101484.0195;;;;
44734;BME280;30462;52.446;-1.930;2023-05-25T03:01:18;101482.0273;;;;
44734;BME280;30462;52.446;-1.930;2023-05-25T03:02:18;101482.8477;;;;
44734;BME280;30462;52.446;-1.930;2023-05-25T03:03:17;101483.4102;;;;
44734;BME280;30462;52.446;-1.930;2023-05-25T03:04:17;101483.75;;;;
44734;BME280;30462;52.446;-1.930;2023-05-25T03:05:18;101483.5156;;;;
44734;BME280;30462;52.446;-1.930;2023-05-25T03:06:18;101481.8516;;;;
44734;BME280;30462;52.446;-1.930;2023-05-25T03:07:18;101481.6367;;;;
44734;BME280;30462;52.446;-1.930;2023-05-25T03:08:18;101483.4648;;;;
44734;BME280;30462;52.446;-1.930;2023-05-25T03:09:18;101480.4023;;;;
44734;BME280;30462;52.446;-1.930;2023-05-25T03:10:18;101481.9609;;;;
44734;BME280;30462;52.446;-1.930;2023-05-25T03:11:18;101483;;;;
44734;BME280;30462;52.446;-1.930;2023-05-25T03:12:18;101483.5078;;;;
44734;BME280;30462;52.446;-1.930;2023-05-25T03:13:17;101485.1836;;;;
44734;BME280;30462;52.446;-1.930;2023-05-25T03:14:18;101489.0742;;;;
44734;BME280;30462;52.446;-1.930;2023-05-25T03:15:18;101487.7734;;;;
44734;BME280;30462;52.446;-1.930;2023-05-25T03:16:18;101488.3828;;;;
44734;BME280;30462;52.446;-1.930;2023-05-25T03:17:17;101491.9102;;;;
44734;BME280;30462;52.446;-1.930;2023-05-25T03:18:18;101491.5625;;;;
44734;BME280;30462;52.446;-1.930;2023-05-25T03:19:18;101489.6094;;;;
44734;BME280;30462;52.446;-1.930;2023-05-25T03:20:18;101489.5898;;;;
44734;BME280;30462;52.446;-1.930;2023-05-25T03:21:18;101488.5508;;;;
44734;BME280;30462;52.446;-1.930;2023-05-25T03:22:18;101493.1133;;;;
44734;BME280;30462;52.446;-1.930;2023-05-25T03:23:18;101493.3086;;;;
44734;BME280;30462;52.446;-1.930;2023-05-25T03:24:17;101495.0703;;;;
44734;BME280;30462;52.446;-1.930;2023-05-25T03:25:17;101490.3633;;;;
44734;BME280;30462;52.446;-1.930;2023-05-25T03:26:18;101492.418;;;;
44734;BME280;30462;52.446;-1.930;2023-05-25T03:27:18;101490.6914;;;;
44734;BME280;30462;52.446;-1.930;2023-05-25T03:28:18;101490.5586;;;;
44734;BME280;30462;52.446;-1.930;2023-05-25T03:29:18;101494.5078;;;;
44734;BME280;30462;52.446;-1.930;2023-05-25T03:30:18;101493.4531;;;;
44734;BME280;30462;52.446;-1.930;2023-05-25T03:31:18;101493.75;;;;
44734;BME280;30462;52.446;-1.930;2023-05-25T03:32:18;101494.9688;;;;
44734;BME280;30462;52.446;-1.930;2023-05-25T03:33:18;101492.9414;;;;
44734;BME280;30462;52.446;-1.930;2023-05-25T03:34:18;101492.8477;;;;
44734;BME280;30462;52.446;-1.930;2023-05-25T03:35:18;101495.0508;;;;
44734;BME280;30462;52.446;-1.930;2023-05-25T03:36:18;101495.1875;;;;
44734;BME280;30462;52.446;-1.930;2023-05-25T03:37:18;101500.6172;;;;
44734;BME280;30462;52.446;-1.930;2023-05-25T03:38:17;101495.8633;;;;
44734;BME280;30462;52.446;-1.930;2023-05-25T03:39:18;101498.0508;;;;
44734;BME280;30462;52.446;-1.930;2023-05-25T03:40:18;101497.7695;;;;
44734;BME280;30462;52.446;-1.930;2023-05-25T03:41:18;101496.957;;;;
44734;BME280;30462;52.446;-1.930;2023-05-25T03:42:18;101493.3398;;;;
44734;BME280;30462;52.446;-1.930;2023-05-25T03:43:18;101492.5938;;;;
44734;BME280;30462;52.446;-1.930;2023-05-25T03:44:17;101494.0977;;;;
44734;BME280;30462;52.446;-1.930;2023-05-25T03:45:18;101492.7578;;;;
44734;BME280;30462;52.446;-1.930;2023-05-25T03:46:18;101491.1367;;;;
44734;BME280;30462;52.446;-1.930;2023-05-25T03:47:18;101490.2695;;;;
44734;BME280;30462;52.446;-1.930;2023-05-25T03:48:18;101494.4805;;;;
44734;BME280;30462;52.446;-1.930;2023-05-25T03:49:18;101491.2773;;;;
44734;BME280;30462;52.446;-1.930;2023-05-25T03:50:18;101494.6992;;;;
44734;BME280;30462;52.446;-1.930;2023-05-25T03:51:18;101490.9922;;;;
44734;BME280;30462;52.446;-1.930;2023-05-25T03:52:17;101491.4258;;;;
44734;BME280;30462;52.446;-1.930;2023-05-25T03:53:18;101489.5391;;;;
44734;BME280;30462;52.446;-1.930;2023-05-25T03:54:18;101492.1523;;;;
44734;BME280;30462;52.446;-1.930;2023-05-25T03:55:18;101486.8594;;;;
44734;BME280;30462;52.446;-1.930;2023-05-25T03:56:18;101485.3047;;;;
44734;BME280;30462;52.446;-1.930;2023-05-25T03:57:17;101487.8711;;;;
44734;BME280;30462;52.446;-1.930;2023-05-25T03:58:19;101485.3164;;;;
44734;BME280;30462;52.446;-1.930;2023-05-25T03:59:18;101486.6602;;;;
44734;BME280;30462;52.446;-1.930;2023-05-25T04:00:18;101489.2422;;;;
44734;BME280;30462;52.446;-1.930;2023-05-25T04:01:18;101489.5117;;;;
44734;BME280;30462;52.446;-1.930;2023-05-25T04:02:18;101486.207;;;;
44734;BME280;30462;52.446;-1.930;2023-05-25T04:03:18;101486.8516;;;;
44734;BME280;30462;52.446;-1.930;2023-05-25T04:04:19;101488.7773;;;;
44734;BME280;30462;52.446;-1.930;2023-05-25T04:05:17;101491.7773;;;;
44734;BME280;30462;52.446;-1.930;2023-05-25T04:06:17;101493.4141;;;;
44734;BME280;30462;52.446;-1.930;2023-05-25T04:07:17;101496.3164;;;;
44734;BME280;30462;52.446;-1.930;2023-05-25T04:08:17;101495.9609;;;;
44734;BME280;30462;52.446;-1.930;2023-05-25T04:09:18;101497.5195;;;;
44734;BME280;30462;52.446;-1.930;2023-05-25T04:10:18;101491.6758;;;;
44734;BME280;30462;52.446;-1.930;2023-05-25T04:11:18;101494.3359;;;;
44734;BME280;30462;52.446;-1.930;2023-05-25T04:12:18;101493.3633;;;;
44734;BME280;30462;52.446;-1.930;2023-05-25T04:13:17;101491.043;;;;
44734;BME280;30462;52.446;-1.930;2023-05-25T04:14:18;101492.7422;;;;
44734;BME280;30462;52.446;-1.930;2023-05-25T04:15:18;101496.1367;;;;
44734;BME280;30462;52.446;-1.930;2023-05-25T04:16:18;101493.8203;;;;
44734;BME280;30462;52.446;-1.930;2023-05-25T04:17:18;101494.0352;;;;
44734;BME280;30462;52.446;-1.930;2023-05-25T04:18:18;101498.6094;;;;
44734;BME280;30462;52.446;-1.930;2023-05-25T04:19:17;101496.2344;;;;
44734;BME280;30462;52.446;-1.930;2023-05-25T04:20:18;101496.3438;;;;
44734;BME280;30462;52.446;-1.930;2023-05-25T04:21:18;101496.5703;;;;
44734;BME280;30462;52.446;-1.930;2023-05-25T04:22:18;101496.0898;;;;
44734;BME280;30462;52.446;-1.930;2023-05-25T04:23:18;101496.8906;;;;
44734;BME280;30462;52.446;-1.930;2023-05-25T04:24:18;101494.0352;;;;
44734;BME280;30462;52.446;-1.930;2023-05-25T04:25:18;101493.8984;;;;
44734;BME280;30462;52.446;-1.930;2023-05-25T04:26:17;101498.3359;;;;
44734;BME280;30462;52.446;-1.930;2023-05-25T04:27:17;101496.457;;;;
44734;BME280;30462;52.446;-1.930;2023-05-25T04:28:17;101497.0625;;;;
44734;BME280;30462;52.446;-1.930;2023-05-25T04:29:18;101499.5;;;;
44734;BME280;30462;52.446;-1.930;2023-05-25T04:30:18;101496.5586;;;;
44734;BME280;30462;52.446;-1.930;2023-05-25T04:31:18;101496.832;;;;
44734;BME280;30462;52.446;-1.930;2023-05-25T04:32:18;101499.0664;;;;
44734;BME280;30462;52.446;-1.930;2023-05-25T04:33:18;101496.6563;;;;
44734;BME280;30462;52.446;-1.930;2023-05-25T04:34:18;101497.9141;;;;
44734;BME280;30462;52.446;-1.930;2023-05-25T04:35:17;101500.1055;;;;
44734;BME280;30462;52.446;-1.930;2023-05-25T04:36:18;101500.2695;;;;
44734;BME280;30462;52.446;-1.930;2023-05-25T04:37:18;101500.4805;;;;
44734;BME280;30462;52.446;-1.930;2023-05-25T04:38:18;101501.6992;;;;
44734;BME280;30462;52.446;-1.930;2023-05-25T04:39:18;101502;;;;
44734;BME280;30462;52.446;-1.930;2023-05-25T04:40:17;101500.5234;;;;
44734;BME280;30462;52.446;-1.930;2023-05-25T04:41:18;101502.1328;;;;
44734;BME280;30462;52.446;-1.930;2023-05-25T04:42:18;101502.7266;;;;
44734;BME280;30462;52.446;-1.930;2023-05-25T04:43:18;101503.1953;;;;
44734;BME280;30462;52.446;-1.930;2023-05-25T04:44:18;101504.1055;;;;
44734;BME280;30462;52.446;-1.930;2023-05-25T04:45:18;101506.8711;;;;
44734;BME280;30462;52.446;-1.930;2023-05-25T04:46:18;101510.7773;;;;
44734;BME280;30462;52.446;-1.930;2023-05-25T04:47:18;101510.832;;;;
44734;BME280;30462;52.446;-1.930;2023-05-25T04:48:17;101508.293;;;;
44734;BME280;30462;52.446;-1.930;2023-05-25T04:49:19;101508.6133;;;;
44734;BME280;30462;52.446;-1.930;2023-05-25T04:50:18;101510.7305;;;;
44734;BME280;30462;52.446;-1.930;2023-05-25T04:51:18;101507.332;;;;
44734;BME280;30462;52.446;-1.930;2023-05-25T04:52:18;101507.8398;;;;
44734;BME280;30462;52.446;-1.930;2023-05-25T04:53:17;101511.9336;;;;
44734;BME280;30462;52.446;-1.930;2023-05-25T04:54:18;101511.6797;;;;
44734;BME280;30462;52.446;-1.930;2023-05-25T04:55:18;101510.6523;;;;
44734;BME280;30462;52.446;-1.930;2023-05-25T04:56:19;101513.0586;;;;
44734;BME280;30462;52.446;-1.930;2023-05-25T04:57:18;101513.5039;;;;
44734;BME280;30462;52.446;-1.930;2023-05-25T04:58:18;101512.7656;;;;
44734;BME280;30462;52.446;-1.930;2023-05-25T04:59:17;101514.1328;;;;
44734;BME280;30462;52.446;-1.930;2023-05-25T05:00:18;101513.4258;;;;
44734;BME280;30462;52.446;-1.930;2023-05-25T05:01:17;101514.2227;;;;
44734;BME280;30462;52.446;-1.930;2023-05-25T05:02:17;101512.0273;;;;
44734;BME280;30462;52.446;-1.930;2023-05-25T05:03:18;101513.4336;;;;
44734;BME280;30462;52.446;-1.930;2023-05-25T05:04:18;101514.1445;;;;
44734;BME280;30462;52.446;-1.930;2023-05-25T05:05:18;101517.3164;;;;
44734;BME280;30462;52.446;-1.930;2023-05-25T05:06:17;101519.0391;;;;
44734;BME280;30462;52.446;-1.930;2023-05-25T05:07:18;101518.0859;;;;
44734;BME280;30462;52.446;-1.930;2023-05-25T05:08:18;101518.4297;;;;
44734;BME280;30462;52.446;-1.930;2023-05-25T05:09:18;101520.5859;;;;
44734;BME280;30462;52.446;-1.930;2023-05-25T05:10:18;101522.4023;;;;
44734;BME280;30462;52.446;-1.930;2023-05-25T05:11:18;101524.8594;;;;
44734;BME280;30462;52.446;-1.930;2023-05-25T05:12:18;101524.7031;;;;
44734;BME280;30462;52.446;-1.930;2023-05-25T05:13:17;101528.1797;;;;
44734;BME280;30462;52.446;-1.930;2023-05-25T05:14:18;101525.1211;;;;
44734;BME280;30462;52.446;-1.930;2023-05-25T05:15:18;101528.5313;;;;
44734;BME280;30462;52.446;-1.930;2023-05-25T05:16:18;101531.0586;;;;
44734;BME280;30462;52.446;-1.930;2023-05-25T05:17:18;101531.043;;;;
44734;BME280;30462;52.446;-1.930;2023-05-25T05:18:18;101532.7695;;;;
44734;BME280;30462;52.446;-1.930;2023-05-25T05:19:17;101531.6484;;;;
44734;BME280;30462;52.446;-1.930;2023-05-25T05:20:18;101535.9453;;;;
44734;BME280;30462;52.446;-1.930;2023-05-25T05:21:17;101536.4219;;;;
44734;BME280;30462;52.446;-1.930;2023-05-25T05:22:18;101537.7852;;;;
44734;BME280;30462;52.446;-1.930;2023-05-25T05:23:18;101538.4648;;;;
44734;BME280;30462;52.446;-1.930;2023-05-25T05:24:18;101540.3789;;;;
44734;BME280;30462;52.446;-1.930;2023-05-25T05:25:18;101539.625;;;;
44734;BME280;30462;52.446;-1.930;2023-05-25T05:26:18;101542.8633;;;;
44734;BME280;30462;52.446;-1.930;2023-05-25T05:27:18;101539.0039;;;;
44734;BME280;30462;52.446;-1.930;2023-05-25T05:28:17;101543.7813;;;;
44734;BME280;30462;52.446;-1.930;2023-05-25T05:29:18;101544.9883;;;;
44734;BME280;30462;52.446;-1.930;2023-05-25T05:30:18;101547.9102;;;;
44734;BME280;30462;52.446;-1.930;2023-05-25T05:31:18;101546.1641;;;;
44734;BME280;30462;52.446;-1.930;2023-05-25T05:32:18;101550.8789;;;;
44734;BME280;30462;52.446;-1.930;2023-05-25T05:33:18;101551.582;;;;
44734;BME280;30462;52.446;-1.930;2023-05-25T05:34:17;101549.3359;;;;
44734;BME280;30462;52.446;-1.930;2023-05-25T05:35:18;101552.7188;;;;
44734;BME280;30462;52.446;-1.930;2023-05-25T05:36:19;101553.2539;;;;
44734;BME280;30462;52.446;-1.930;2023-05-25T05:37:18;101555.2188;;;;
44734;BME280;30462;52.446;-1.930;2023-05-25T05:38:18;101558.9023;;;;
44734;BME280;30462;52.446;-1.930;2023-05-25T05:39:17;101558.2539;;;;
44734;BME280;30462;52.446;-1.930;2023-05-25T05:40:18;101557.4063;;;;
44734;BME280;30462;52.446;-1.930;2023-05-25T05:41:18;101561.2422;;;;
44734;BME280;30462;52.446;-1.930;2023-05-25T05:42:18;101557.7969;;;;
44734;BME280;30462;52.446;-1.930;2023-05-25T05:43:18;101562.2227;;;;
44734;BME280;30462;52.446;-1.930;2023-05-25T05:44:18;101558.4336;;;;
44734;BME280;30462;52.446;-1.930;2023-05-25T05:45:17;101557.8711;;;;
44734;BME280;30462;52.446;-1.930;2023-05-25T05:46:18;101558.7227;;;;